Time;durP1;ratioP1;P1;durP2;ratioP2;P2;SDS_P1;SDS_P2;PMS_P1;PMS_P2;Temp;Humidity;BMP_temperature;BMP_pressure;BME280_temperature;BME280_humidity;BME280_pressure;Samples;Min_cycle;Max_cycle;Signal;HPM_P1;HPM_P2
2022/12/16 00:01:27;;;;;;;1.48;1.48;;;;;;;5.17;72.06;99079.37;4350809;32;33585;-83
2022/12/16 00:03:57;;;;;;;0.35;0.35;;;;;;;5.53;70.28;99079.06;4345543;33;33373;-84
2022/12/16 00:06:28;;;;;;;0.55;0.55;;;;;;;5.39;70.80;99063.81;4341069;32;33676;-83
2022/12/16 00:08:56;;;;;;;0.70;0.70;;;;;;;5.66;69.91;99064.63;4351854;32;33549;-83
2022/12/16 00:11:24;;;;;;;1.40;1.35;;;;;;;5.09;72.04;99063.97;4351891;32;32472;-82
2022/12/16 00:13:52;;;;;;;0.10;0.10;;;;;;;5.28;71.16;99056.34;4354101;32;33614;-83
2022/12/16 00:16:23;;;;;;;0.20;0.20;;;;;;;5.25;71.60;99058.22;4343316;32;270286;-83
2022/12/16 00:18:51;;;;;;;2.25;1.67;;;;;;;4.78;73.19;99061.47;4343992;33;33704;-83
2022/12/16 00:21:19;;;;;;;0.30;0.30;;;;;;;5.36;71.21;99046.47;4352916;32;33279;-83
2022/12/16 00:23:47;;;;;;;0.32;0.32;;;;;;;5.23;71.53;99053.03;4351872;32;33424;-83
2022/12/16 00:26:15;;;;;;;3.30;0.90;;;;;;;5.38;71.10;99060.34;4343801;32;34060;-83
2022/12/16 00:28:43;;;;;;;0.88;0.88;;;;;;;4.75;73.39;99061.59;4352540;32;33122;-83
2022/12/16 00:31:11;;;;;;;0.73;0.73;;;;;;;5.03;72.39;99044.97;4352732;32;33969;-84
2022/12/16 00:33:39;;;;;;;0.28;0.28;;;;;;;5.20;71.55;99052.28;4346484;32;34554;-83
2022/12/16 00:36:07;;;;;;;0.85;0.85;;;;;;;5.11;72.11;99045.59;4332201;32;32878;-83
2022/12/16 00:38:35;;;;;;;4.85;0.75;;;;;;;5.08;72.29;99046.56;4348423;32;33816;-83
2022/12/16 00:41:03;;;;;;;0.03;0.03;;;;;;;5.17;72.04;99050.59;4346102;32;34121;-83
2022/12/16 00:43:31;;;;;;;0.10;0.10;;;;;;;5.37;71.36;99045.56;4338744;33;33444;-83
2022/12/16 00:46:00;;;;;;;0.70;0.45;;;;;;;5.44;70.84;99040.97;4350035;32;34721;-83
2022/12/16 00:48:28;;;;;;;0.08;0.08;;;;;;;5.69;69.71;99045.31;4359999;32;33472;-84
2022/12/16 00:50:56;;;;;;;0.73;0.68;;;;;;;5.24;71.49;99039.03;4349989;32;32382;-83
2022/12/16 00:53:26;;;;;;;0.57;0.57;;;;;;;5.31;71.74;99034.44;4350902;32;32899;-83
2022/12/16 00:56:07;;;;;;;0.00;0.00;;;;;;;5.44;71.50;99038.34;4345190;32;34054;-83
2022/12/16 00:58:36;;;;;;;1.05;1.05;;;;;;;5.40;71.69;99034.13;4347000;32;33137;-82
2022/12/16 01:01:04;;;;;;;0.10;0.10;;;;;;;5.24;72.21;99028.56;4344963;32;32188;-82
2022/12/16 01:03:32;;;;;;;0.00;0.00;;;;;;;5.09;72.57;99024.72;4349622;32;32799;-83
2022/12/16 01:06:14;;;;;;;0.08;0.08;;;;;;;5.12;72.17;99019.34;4347883;32;33259;-83
2022/12/16 01:08:49;;;;;;;0.32;0.32;;;;;;;5.36;71.68;99012.44;4362559;32;32625;-81
2022/12/16 01:11:18;;;;;;;0.95;0.95;;;;;;;5.34;71.99;99011.63;4350957;32;33176;-82
2022/12/16 01:13:50;;;;;;;1.23;1.23;;;;;;;4.97;73.17;98988.47;4346576;32;33460;-83
2022/12/16 01:16:19;;;;;;;0.43;0.43;;;;;;;4.53;74.59;98987.34;4352739;32;34197;-82
2022/12/16 01:18:47;;;;;;;1.15;0.47;;;;;;;4.91;73.96;98980.84;4358160;32;32780;-83
2022/12/16 01:21:15;;;;;;;0.00;0.00;;;;;;;5.09;72.89;98972.37;4338921;32;33246;-83
2022/12/16 01:23:46;;;;;;;0.50;0.50;;;;;;;4.87;73.80;98969.63;4344092;32;34036;-83
2022/12/16 01:26:16;;;;;;;0.60;0.60;;;;;;;4.88;73.92;98958.25;4346339;32;34681;-83
2022/12/16 01:28:48;;;;;;;0.32;0.32;;;;;;;4.82;74.35;98952.38;4360175;32;33936;-83
2022/12/16 01:31:18;;;;;;;0.57;0.57;;;;;;;5.12;73.40;98951.31;4353892;32;32297;-83
2022/12/16 01:33:45;;;;;;;0.52;0.52;;;;;;;5.11;73.65;98949.63;4351373;32;33773;-83
2022/12/16 01:36:14;;;;;;;0.22;0.22;;;;;;;4.97;73.94;98940.53;4356921;32;34449;-81
2022/12/16 01:38:45;;;;;;;1.85;0.37;;;;;;;4.69;75.42;98941.47;4352554;32;32503;-82
2022/12/16 01:41:14;;;;;;;0.95;0.75;;;;;;;4.96;74.65;98936.22;4349504;32;32584;-82
2022/12/16 01:43:44;;;;;;;2.55;1.17;;;;;;;5.23;73.37;98922.16;4346920;32;34503;-82
2022/12/16 01:46:11;;;;;;;1.42;1.15;;;;;;;5.36;73.01;98918.19;4344826;32;33578;-82
2022/12/16 01:49:05;;;;;;;0.77;0.77;;;;;;;5.49;72.41;98909.88;4351593;32;34502;-81
2022/12/16 01:51:42;;;;;;;0.40;0.40;;;;;;;5.03;73.71;98899.34;4356166;32;32037;-82
2022/12/16 01:54:43;;;;;;;0.20;0.20;;;;;;;5.19;73.64;98889.16;4361351;32;34310;-82
2022/12/16 01:57:16;;;;;;;0.22;0.22;;;;;;;4.90;74.92;98891.97;4352173;32;34650;-82
2022/12/16 01:59:46;;;;;;;0.00;0.00;;;;;;;4.95;74.13;98874.34;4346296;32;32939;-81
2022/12/16 02:02:14;;;;;;;0.20;0.20;;;;;;;5.05;74.19;98871.34;4354597;32;32473;-82
2022/12/16 02:07:29;;;;;;;0.73;0.73;;;;;;;4.81;74.88;98846.91;4350055;32;33979;-82
2022/12/16 02:09:57;;;;;;;0.00;0.00;;;;;;;4.84;74.64;98836.34;4351843;32;34107;-81
2022/12/16 02:12:45;;;;;;;0.25;0.22;;;;;;;4.94;74.89;98817.69;4351715;32;33477;-81
2022/12/16 02:15:25;;;;;;;0.15;0.15;;;;;;;5.06;74.10;98804.16;4349948;32;33758;-81
2022/12/16 02:17:59;;;;;;;0.00;0.00;;;;;;;5.11;73.79;98783.91;4340397;32;33512;-81
2022/12/16 02:21:07;;;;;;;0.00;0.00;;;;;;;5.28;73.11;98773.66;4355800;32;33830;-81
2022/12/16 02:23:38;;;;;;;0.50;0.50;;;;;;;4.91;75.12;98762.88;4347367;32;33318;-83
2022/12/16 02:26:34;;;;;;;0.17;0.05;;;;;;;5.17;74.40;98752.28;4353957;32;34201;-82
2022/12/16 02:29:29;;;;;;;0.10;0.10;;;;;;;5.07;74.66;98745.69;4345975;33;33302;-82
2022/12/16 02:32:06;;;;;;;2.00;1.10;;;;;;;4.75;75.74;98753.00;4346317;32;35567;-81
2022/12/16 02:34:48;;;;;;;0.90;0.85;;;;;;;4.95;75.38;98759.25;4345412;32;33138;-81
2022/12/16 02:37:36;;;;;;;0.00;0.00;;;;;;;4.83;76.20;98758.78;4353740;32;33872;-81
2022/12/16 02:40:15;;;;;;;0.00;0.00;;;;;;;4.68;76.55;98758.50;4347333;32;33949;-83
2022/12/16 02:42:47;;;;;;;0.85;0.77;;;;;;;4.71;77.07;98772.31;4346315;32;33841;-82
2022/12/16 02:45:17;;;;;;;1.37;0.95;;;;;;;4.62;77.52;98777.88;4341037;32;32218;-81
2022/12/16 02:47:45;;;;;;;3.65;0.65;;;;;;;4.66;76.88;98781.25;4348798;32;32702;-81
2022/12/16 02:50:21;;;;;;;0.45;0.45;;;;;;;5.17;75.25;98790.66;4356600;32;34059;-81
2022/12/16 02:52:53;;;;;;;0.60;0.60;;;;;;;5.18;74.78;98795.88;4355987;32;34473;-81
2022/12/16 02:55:27;;;;;;;0.00;0.00;;;;;;;4.97;75.67;98800.12;4353544;32;33633;-81
2022/12/16 02:58:20;;;;;;;0.20;0.20;;;;;;;4.95;75.55;98795.88;4351619;32;33573;-82
2022/12/16 03:00:57;;;;;;;0.95;0.37;;;;;;;5.10;74.68;98792.69;4328696;33;34057;-81
2022/12/16 03:03:49;;;;;;;0.22;0.22;;;;;;;4.90;75.06;98782.13;4349406;32;33763;-82
2022/12/16 03:06:20;;;;;;;0.00;0.00;;;;;;;4.93;75.37;98779.38;4346746;32;33964;-82
2022/12/16 03:08:51;;;;;;;0.00;0.00;;;;;;;4.79;75.55;98762.41;4350267;32;33246;-82
2022/12/16 03:11:19;;;;;;;0.20;0.20;;;;;;;4.81;75.82;98758.00;4348410;32;33848;-82
2022/12/16 03:13:49;;;;;;;0.00;0.00;;;;;;;4.82;75.76;98730.94;4347689;32;34468;-82
2022/12/16 03:16:20;;;;;;;0.75;0.75;;;;;;;4.91;76.02;98749.81;4361686;32;32393;-81
2022/12/16 03:18:54;;;;;;;0.05;0.05;;;;;;;5.12;74.47;98746.38;4354472;32;35299;-82
2022/12/16 03:21:26;;;;;;;5.78;1.02;;;;;;;5.17;74.68;98684.22;4349530;32;33724;-82
2022/12/16 03:24:00;;;;;;;0.25;0.25;;;;;;;4.90;75.43;98693.19;4354457;32;34463;-82
2022/12/16 03:26:30;;;;;;;1.15;0.25;;;;;;;4.65;76.69;98729.84;4353324;32;33370;-82
2022/12/16 03:29:06;;;;;;;2.22;0.85;;;;;;;4.71;77.02;98725.25;4351345;32;33398;-83
2022/12/16 03:31:44;;;;;;;0.13;0.13;;;;;;;4.99;75.22;98714.59;4349110;32;33000;-83
2022/12/16 03:34:28;;;;;;;0.90;0.73;;;;;;;5.24;74.78;98724.12;4345498;32;34236;-82
2022/12/16 03:37:04;;;;;;;0.32;0.32;;;;;;;5.09;74.99;98715.94;4342937;33;32019;-81
2022/12/16 03:39:41;;;;;;;0.00;0.00;;;;;;;5.42;73.72;98717.31;4353464;32;33345;-82
2022/12/16 03:42:10;;;;;;;0.28;0.28;;;;;;;4.95;75.46;98714.78;4359546;32;33451;-82
2022/12/16 03:44:38;;;;;;;0.17;0.17;;;;;;;5.24;75.10;98711.88;4354764;32;32813;-82
2022/12/16 03:47:06;;;;;;;0.32;0.32;;;;;;;4.93;75.91;98709.59;4353676;32;34332;-82
2022/12/16 03:49:34;;;;;;;0.88;0.68;;;;;;;5.16;75.35;98716.56;4340054;32;32932;-82
2022/12/16 03:52:05;;;;;;;1.10;0.70;;;;;;;5.42;74.20;98717.31;4339343;32;34393;-82
2022/12/16 03:54:34;;;;;;;1.33;1.23;;;;;;;5.36;74.44;98711.41;4358262;32;32949;-83
2022/12/16 03:57:03;;;;;;;0.10;0.10;;;;;;;5.32;74.04;98706.34;4344963;32;33038;-82
2022/12/16 03:59:31;;;;;;;2.67;2.40;;;;;;;5.50;73.81;98700.34;4338125;32;34536;-81
2022/12/16 04:01:59;;;;;;;0.08;0.08;;;;;;;5.18;75.28;98692.97;4355771;32;33659;-81
2022/12/16 04:04:29;;;;;;;0.00;0.00;;;;;;;5.42;74.22;98680.66;4342472;32;34084;-81
2022/12/16 04:09:48;;;;;;;0.20;0.20;;;;;;;5.63;73.73;98670.13;4337412;32;32183;-82
2022/12/16 04:26:21;;;;;;;0.00;0.00;;;;;;;5.37;74.93;98642.44;4355110;32;33431;-82
2022/12/16 04:28:49;;;;;;;1.65;1.10;;;;;;;5.09;76.28;98642.69;4349583;32;33119;-82
2022/12/16 04:31:17;;;;;;;0.40;0.40;;;;;;;4.98;77.35;98654.47;4350774;32;34027;-82
